createdAt,value
2019-04-03T00:00:10.575Z,19.00
2019-04-03T00:05:14.214Z,20.10
2019-04-03T00:10:17.833Z,23.37
2019-04-03T00:15:21.592Z,19.83
2019-04-03T00:20:25.594Z,17.90
2019-04-03T00:25:29.276Z,17.23
2019-04-03T00:30:32.909Z,16.33
2019-04-03T00:35:36.695Z,17.27
2019-04-03T00:40:40.766Z,22.80
2019-04-03T00:45:44.852Z,20.73
2019-04-03T00:50:48.721Z,21.13
2019-04-03T00:55:52.628Z,19.50
2019-04-03T01:00:56.822Z,24.10
2019-04-03T01:06:01.997Z,21.23
2019-04-03T01:11:05.890Z,17.47
2019-04-03T01:16:09.759Z,16.37
2019-04-03T01:21:14.313Z,22.63
2019-04-03T01:26:18.026Z,19.83
2019-04-03T01:31:21.748Z,17.40
2019-04-03T01:36:25.509Z,17.77
2019-04-03T01:41:29.227Z,17.03
2019-04-03T01:46:32.846Z,16.60
2019-04-03T01:51:36.560Z,17.23
2019-04-03T01:56:40.277Z,16.20
2019-04-03T02:01:43.904Z,18.53
2019-04-03T02:06:47.589Z,15.23
2019-04-03T02:11:53.432Z,16.20
2019-04-03T02:16:57.149Z,16.20
2019-04-03T02:22:02.202Z,15.10
2019-04-03T02:27:05.931Z,14.97
2019-04-03T02:32:09.813Z,14.90
2019-04-03T02:37:16.557Z,18.07
2019-04-03T02:42:18.897Z,14.37
2019-04-03T02:47:22.831Z,12.57
2019-04-03T02:52:26.563Z,18.03
2019-04-03T02:57:30.912Z,15.93
2019-04-03T03:02:34.759Z,14.13
2019-04-03T03:07:38.833Z,13.40
2019-04-03T03:12:42.706Z,12.50
2019-04-03T03:17:46.823Z,15.90
2019-04-03T03:22:51.172Z,16.07
2019-04-03T03:27:55.496Z,13.33
2019-04-03T03:33:22.678Z,13.27
2019-04-03T03:38:07.020Z,14.17
2019-04-03T03:43:10.521Z,15.87
2019-04-03T03:48:14.435Z,14.63
2019-04-03T03:53:18.092Z,15.13
2019-04-03T03:58:21.751Z,11.97
2019-04-03T04:03:25.546Z,10.37
2019-04-03T04:08:29.639Z,12.73
2019-04-03T04:13:34.122Z,11.57
2019-04-03T04:18:38.249Z,12.67
2019-04-03T04:23:42.259Z,13.70
2019-04-03T04:28:46.344Z,13.63
2019-04-03T04:33:51.015Z,14.30
2019-04-03T04:38:55.830Z,12.70
2019-04-03T04:44:00.934Z,15.07
2019-04-03T04:49:04.894Z,13.20
2019-04-03T04:54:08.522Z,10.20
2019-04-03T04:59:13.579Z,12.43
2019-04-03T05:04:18.015Z,9.73
2019-04-03T05:09:21.742Z,13.60
2019-04-03T05:14:25.545Z,13.63
2019-04-03T05:19:29.244Z,12.20
2019-04-03T05:24:33.113Z,14.03
2019-04-03T05:29:36.932Z,11.50
2019-04-03T05:34:43.636Z,14.93
2019-04-03T05:39:47.971Z,13.87
2019-04-03T05:44:53.499Z,11.43
2019-04-03T05:49:57.444Z,10.40
2019-04-03T05:55:01.568Z,12.27
2019-04-03T06:00:06.825Z,11.67
2019-04-03T06:05:13.243Z,10.43
2019-04-03T06:10:17.204Z,10.27
2019-04-03T06:15:21.946Z,10.23
2019-04-03T06:20:27.523Z,9.00
2019-04-03T06:25:31.527Z,11.50
2019-04-03T06:30:36.091Z,7.90
2019-04-03T06:35:39.997Z,9.50
2019-04-03T06:40:43.942Z,8.00
2019-04-03T06:45:47.750Z,12.23
2019-04-03T06:50:51.645Z,11.93
2019-04-03T06:55:55.672Z,12.07
2019-04-03T07:00:59.465Z,11.10
2019-04-03T07:06:03.410Z,11.53
2019-04-03T07:11:07.323Z,10.87
2019-04-03T07:16:11.675Z,9.10
2019-04-03T07:21:15.651Z,8.73
2019-04-03T07:26:19.577Z,10.20
2019-04-03T07:31:24.349Z,12.00
2019-04-03T07:36:28.351Z,10.47
2019-04-03T07:41:32.200Z,11.03
2019-04-03T07:46:35.925Z,9.63
2019-04-03T07:51:39.774Z,9.63
2019-04-03T07:56:43.528Z,10.50
2019-04-03T08:01:47.263Z,9.10
2019-04-03T08:06:51.264Z,11.27
2019-04-03T08:11:55.027Z,11.73
2019-04-03T08:16:58.849Z,17.03
2019-04-03T08:22:02.633Z,9.40
2019-04-03T08:27:08.512Z,12.97
2019-04-03T08:32:11.765Z,12.50
2019-04-03T08:37:27.668Z,10.20
2019-04-03T08:42:25.918Z,13.07
2019-04-03T08:47:28.657Z,9.50
2019-04-03T08:52:34.833Z,10.70
2019-04-03T08:57:38.723Z,10.27
2019-04-03T09:02:45.899Z,12.07
2019-04-03T09:07:49.702Z,9.30
2019-04-03T09:12:54.233Z,11.40
2019-04-03T09:17:58.380Z,13.77
2019-04-03T09:23:02.717Z,10.03
2019-04-03T09:28:06.484Z,17.53
2019-04-03T09:33:10.220Z,13.03
2019-04-03T09:38:14.124Z,10.03
2019-04-03T09:43:18.080Z,14.97
2019-04-03T09:48:21.905Z,12.93
2019-04-03T09:53:26.368Z,12.10
2019-04-03T09:58:30.764Z,14.20
2019-04-03T10:03:34.895Z,11.47
2019-04-03T10:08:40.381Z,9.70
2019-04-03T10:13:45.355Z,9.63
2019-04-03T10:18:49.521Z,15.33
2019-04-03T10:23:53.246Z,14.47
2019-04-03T10:28:57.212Z,12.33
2019-04-03T10:34:03.133Z,13.53
2019-04-03T10:39:08.495Z,15.23
2019-04-03T10:44:12.695Z,11.20
2019-04-03T10:49:17.268Z,13.70
2019-04-03T10:54:21.966Z,9.83
2019-04-03T10:59:26.532Z,13.30
2019-04-03T11:04:30.817Z,12.13
2019-04-03T11:09:54.190Z,47.90
2019-04-03T11:14:57.994Z,22.87
2019-04-03T11:20:02.072Z,23.37
2019-04-03T11:25:06.502Z,10.53
2019-04-03T11:30:11.789Z,15.83
2019-04-03T11:35:16.295Z,9.37
2019-04-03T11:40:20.533Z,14.90
2019-04-03T11:45:24.407Z,8.47
2019-04-03T11:50:28.141Z,11.80
2019-04-03T11:55:32.135Z,13.47
2019-04-03T12:00:42.066Z,14.50
2019-04-03T12:05:47.478Z,10.70
2019-04-03T12:10:51.292Z,14.80
2019-04-03T12:17:30.458Z,18.07
2019-04-03T12:22:35.235Z,9.40
2019-04-03T12:27:39.344Z,13.67
2019-04-03T12:32:48.070Z,11.27
2019-04-03T12:37:50.124Z,11.93
2019-04-03T12:42:54.378Z,12.67
2019-04-03T12:47:58.108Z,13.20
2019-04-03T12:53:01.886Z,11.20
2019-04-03T12:58:06.158Z,8.57
2019-04-03T13:03:10.386Z,8.03
2019-04-03T13:08:14.115Z,12.93
2019-04-03T13:13:18.155Z,9.43
2019-04-03T13:18:22.171Z,11.73
2019-04-03T13:23:25.905Z,10.20
2019-04-03T13:28:29.562Z,15.33
2019-04-03T13:33:33.512Z,8.17
2019-04-03T13:38:37.339Z,9.47
2019-04-03T13:43:41.464Z,10.87
2019-04-03T13:48:45.908Z,9.17
2019-04-03T13:53:52.324Z,11.13
2019-04-03T13:58:56.005Z,11.87
2019-04-03T14:03:59.896Z,15.10
2019-04-03T14:09:05.827Z,11.47
2019-04-03T14:14:09.894Z,11.10
2019-04-03T14:19:13.919Z,12.80
2019-04-03T14:24:18.139Z,9.17
2019-04-03T14:29:21.962Z,9.67
2019-04-03T14:34:29.250Z,8.90
2019-04-03T14:39:31.081Z,9.93
2019-04-03T14:44:35.118Z,11.90
2019-04-03T14:49:39.464Z,9.70
2019-04-03T14:54:43.735Z,13.23
2019-04-03T14:59:47.896Z,12.93
2019-04-03T15:04:52.154Z,10.70
2019-04-03T15:09:57.223Z,12.50
2019-04-03T15:15:01.526Z,11.20
2019-04-03T15:20:06.433Z,12.83
2019-04-03T15:25:10.776Z,11.97
2019-04-03T15:30:18.391Z,10.73
2019-04-03T15:35:22.232Z,8.90
2019-04-03T15:40:27.015Z,8.93
2019-04-03T15:45:30.983Z,10.30
2019-04-03T15:50:37.634Z,8.37
2019-04-03T15:55:40.496Z,9.90
2019-04-03T16:00:44.135Z,8.53
2019-04-03T16:05:49.069Z,10.17
2019-04-03T16:10:54.468Z,13.80
2019-04-03T16:16:17.692Z,10.93
2019-04-03T16:21:23.639Z,18.40
2019-04-03T16:26:26.984Z,21.63
2019-04-03T16:31:30.824Z,11.83
2019-04-03T16:36:35.056Z,10.00
2019-04-03T16:41:39.036Z,10.43
2019-04-03T16:46:42.904Z,10.73
2019-04-03T16:51:47.080Z,12.47
2019-04-03T16:56:51.867Z,10.73
2019-04-03T17:01:55.924Z,11.80
2019-04-03T17:06:59.662Z,15.00
2019-04-03T17:12:03.560Z,17.33
2019-04-03T17:17:12.861Z,14.23
2019-04-03T17:22:13.059Z,16.87
2019-04-03T17:27:17.587Z,19.97
2019-04-03T17:32:21.359Z,14.97
2019-04-03T17:37:27.121Z,13.57
2019-04-03T17:42:31.001Z,15.27
2019-04-03T17:47:36.926Z,14.03
2019-04-03T17:52:57.160Z,12.80
2019-04-03T17:58:01.783Z,14.50
2019-04-03T18:03:05.804Z,17.03
2019-04-03T18:08:10.866Z,19.13
2019-04-03T18:13:17.093Z,16.30
2019-04-03T18:18:21.756Z,16.40
2019-04-03T18:23:25.718Z,16.87
2019-04-03T18:28:29.559Z,19.00
2019-04-03T18:33:33.499Z,27.90
2019-04-03T18:38:38.564Z,28.67
2019-04-03T18:43:44.184Z,33.60
2019-04-03T18:48:53.201Z,41.70
2019-04-03T18:53:53.499Z,46.37
2019-04-03T18:58:57.349Z,50.60
2019-04-03T19:04:02.412Z,43.43
2019-04-03T19:09:09.956Z,40.77
2019-04-03T19:14:21.409Z,39.67
2019-04-03T19:19:22.781Z,38.30
2019-04-03T19:24:25.359Z,39.37
2019-04-03T19:29:29.336Z,41.03
2019-04-03T19:34:33.471Z,35.87
2019-04-03T19:39:37.719Z,36.70
2019-04-03T19:44:41.952Z,29.23
2019-04-03T19:49:47.910Z,43.73
2019-04-03T19:54:51.479Z,31.53
2019-04-03T19:59:55.967Z,39.13
2019-04-03T20:04:59.919Z,30.40
2019-04-03T20:10:04.433Z,36.90
2019-04-03T20:15:08.780Z,37.03
2019-04-03T20:20:12.958Z,37.07
2019-04-03T20:25:17.059Z,37.47
2019-04-03T20:30:20.936Z,31.60
2019-04-03T20:35:24.776Z,31.07
2019-04-03T20:40:31.733Z,34.93
2019-04-03T20:45:34.550Z,35.93
2019-04-03T20:50:38.772Z,55.93
2019-04-03T20:55:42.644Z,25.57
2019-04-03T21:00:49.382Z,29.73
2019-04-03T21:05:51.926Z,29.27
2019-04-03T21:10:55.611Z,31.40
2019-04-03T21:15:59.357Z,33.13
2019-04-03T21:21:03.308Z,35.00
2019-04-03T21:26:07.512Z,23.80
2019-04-03T21:31:11.509Z,25.70
2019-04-03T21:36:16.016Z,30.60
2019-04-03T21:41:21.378Z,27.13
2019-04-03T21:46:25.263Z,23.27
2019-04-03T21:51:30.016Z,30.23
2019-04-03T21:56:34.038Z,29.17
2019-04-03T22:01:39.130Z,29.30
2019-04-03T22:06:42.865Z,25.70
2019-04-03T22:11:48.726Z,32.97
2019-04-03T22:16:52.781Z,28.20
2019-04-03T22:21:57.514Z,26.87
2019-04-03T22:27:01.271Z,27.67
2019-04-03T22:32:05.276Z,23.83
2019-04-03T22:37:09.076Z,22.57
2019-04-03T22:42:14.707Z,21.50
2019-04-03T22:47:18.345Z,25.10
2019-04-03T22:52:22.226Z,23.83
2019-04-03T22:57:26.073Z,18.03
2019-04-03T23:02:29.886Z,20.30
2019-04-03T23:07:35.159Z,23.40
2019-04-03T23:12:38.899Z,19.73
2019-04-03T23:17:42.955Z,25.23
2019-04-03T23:22:48.888Z,20.90
2019-04-03T23:27:52.666Z,18.73
2019-04-03T23:32:56.275Z,23.20
2019-04-03T23:37:59.960Z,31.90
2019-04-03T23:43:03.797Z,19.73
2019-04-03T23:48:07.655Z,16.73
2019-04-03T23:53:11.526Z,21.40
2019-04-03T23:58:15.201Z,18.53
